createdAt,value
2023-04-13T00:00:08.742Z,128.45
2023-04-13T00:01:16.559Z,100.47
2023-04-13T00:02:18.818Z,123.28
2023-04-13T00:03:24.666Z,126.28
2023-04-13T00:04:27.870Z,70.07
2023-04-13T00:05:34.666Z,82.75
2023-04-13T00:06:48.888Z,98.10
2023-04-13T00:07:54.712Z,85.13
2023-04-13T00:08:57.047Z,95.85
2023-04-13T00:10:02.837Z,77.32
2023-04-13T00:11:06.228Z,95.22
2023-04-13T00:12:11.441Z,130.13
2023-04-13T00:13:15.213Z,130.85
2023-04-13T00:14:20.463Z,155.48
2023-04-13T00:15:22.606Z,106.53
2023-04-13T00:16:31.853Z,105.78
2023-04-13T00:17:34.206Z,131.95
2023-04-13T00:18:40.262Z,92.43
2023-04-13T00:19:43.313Z,116.07
2023-04-13T00:20:48.232Z,142.00
2023-04-13T00:21:50.406Z,101.20
2023-04-13T00:22:55.639Z,100.78
2023-04-13T00:23:57.999Z,94.90
2023-04-13T00:25:03.194Z,129.27
2023-04-13T00:26:06.060Z,84.88
2023-04-13T00:27:11.033Z,103.28
2023-04-13T00:28:13.357Z,132.75
2023-04-13T00:29:18.496Z,97.50
2023-04-13T00:30:21.738Z,102.70
2023-04-13T00:31:29.738Z,113.38
2023-04-13T00:32:31.974Z,85.05
2023-04-13T00:33:36.848Z,75.32
2023-04-13T00:34:40.235Z,90.45
2023-04-13T00:35:45.178Z,105.32
2023-04-13T00:36:47.412Z,87.30
2023-04-13T00:37:52.397Z,78.85
2023-04-13T00:38:54.862Z,95.28
2023-04-13T00:40:00.083Z,178.68
2023-04-13T00:41:05.173Z,175.23
2023-04-13T00:42:08.913Z,127.90
2023-04-13T00:43:16.894Z,128.65
2023-04-13T00:44:20.025Z,116.78
2023-04-13T00:45:25.370Z,87.43
2023-04-13T00:46:32.483Z,93.40
2023-04-13T00:47:37.731Z,76.72
2023-04-13T00:48:42.941Z,89.75
2023-04-13T00:49:45.450Z,146.00
2023-04-13T00:50:50.897Z,139.02
2023-04-13T00:51:53.414Z,133.88
2023-04-13T00:52:58.604Z,140.30
2023-04-13T00:54:01.858Z,149.30
2023-04-13T00:55:07.906Z,154.82
2023-04-13T00:56:11.201Z,160.05
2023-04-13T00:57:16.258Z,170.73
2023-04-13T00:58:18.517Z,155.23
2023-04-13T00:59:23.908Z,183.63
2023-04-13T01:00:27.508Z,125.75
2023-04-13T01:01:35.977Z,144.07
2023-04-13T01:02:42.799Z,133.48
2023-04-13T01:03:48.537Z,149.55
2023-04-13T01:04:51.412Z,188.75
2023-04-13T01:06:06.734Z,155.10
2023-04-13T01:07:16.233Z,162.80
2023-04-13T01:08:28.784Z,152.82
2023-04-13T01:09:38.816Z,148.43
2023-04-13T01:10:49.630Z,133.65
2023-04-13T01:12:00.022Z,126.22
2023-04-13T01:13:25.422Z,167.13
2023-04-13T01:14:34.076Z,155.13
2023-04-13T01:15:43.142Z,147.95
2023-04-13T01:16:55.289Z,143.23
2023-04-13T01:18:10.937Z,137.15
2023-04-13T01:19:36.182Z,173.57
2023-04-13T01:20:43.840Z,162.93
2023-04-13T01:21:46.377Z,179.73
2023-04-13T01:22:57.649Z,131.85
2023-04-13T01:24:18.104Z,130.43
2023-04-13T01:25:37.025Z,163.05
2023-04-13T01:26:50.431Z,171.07
2023-04-13T01:28:00.638Z,151.00
2023-04-13T01:29:03.315Z,141.95
2023-04-13T01:30:11.004Z,154.45
2023-04-13T01:31:17.616Z,186.32
2023-04-13T01:32:20.344Z,131.95
2023-04-13T01:33:25.746Z,145.90
2023-04-13T01:34:28.672Z,128.65
2023-04-13T01:35:34.594Z,113.20
2023-04-13T01:36:40.134Z,100.30
2023-04-13T01:37:45.798Z,147.20
2023-04-13T01:38:50.846Z,131.77
2023-04-13T01:39:53.105Z,88.53
2023-04-13T01:40:58.460Z,141.02
2023-04-13T01:42:00.996Z,116.82
2023-04-13T01:43:11.905Z,105.13
2023-04-13T01:44:14.506Z,125.28
2023-04-13T01:45:21.874Z,142.55
2023-04-13T01:46:28.446Z,102.70
2023-04-13T01:47:37.857Z,113.70
2023-04-13T01:48:45.911Z,96.75
2023-04-13T01:49:57.892Z,123.53
2023-04-13T01:51:04.482Z,115.53
2023-04-13T01:52:11.779Z,141.50
2023-04-13T01:53:20.231Z,137.55
2023-04-13T01:54:28.964Z,122.50
2023-04-13T01:55:33.405Z,136.88
2023-04-13T01:56:39.391Z,101.63
2023-04-13T01:57:47.556Z,115.03
2023-04-13T01:59:00.457Z,114.82
2023-04-13T02:00:14.906Z,133.95
2023-04-13T02:01:19.970Z,135.60
2023-04-13T02:02:23.493Z,124.90
2023-04-13T02:03:29.342Z,110.40
2023-04-13T02:04:32.174Z,131.50
2023-04-13T02:05:40.436Z,113.18
2023-04-13T02:06:42.776Z,107.85
2023-04-13T02:07:48.124Z,150.93
2023-04-13T02:08:52.642Z,131.88
2023-04-13T02:09:58.068Z,142.77
2023-04-13T02:11:01.219Z,178.85
2023-04-13T02:12:08.643Z,120.03
2023-04-13T02:13:13.825Z,150.55
2023-04-13T02:14:21.899Z,187.95
2023-04-13T02:15:24.132Z,158.45
2023-04-13T02:16:29.211Z,148.30
2023-04-13T02:17:31.589Z,133.10
2023-04-13T02:18:37.038Z,110.70
2023-04-13T02:19:39.512Z,153.38
2023-04-13T02:20:47.360Z,144.20
2023-04-13T02:21:49.665Z,124.45
2023-04-13T02:22:55.296Z,155.85
2023-04-13T02:23:58.170Z,129.63
2023-04-13T02:25:03.750Z,125.18
2023-04-13T02:26:08.109Z,135.80
2023-04-13T02:27:13.379Z,143.52
2023-04-13T02:28:16.588Z,148.88
2023-04-13T02:29:24.792Z,171.57
2023-04-13T02:30:28.345Z,117.43
2023-04-13T02:31:34.041Z,124.20
2023-04-13T02:32:38.506Z,118.47
2023-04-13T02:33:43.748Z,121.18
2023-04-13T02:34:46.365Z,201.38
2023-04-13T02:35:51.420Z,114.00
2023-04-13T02:36:53.961Z,111.72
2023-04-13T02:37:59.081Z,84.35
2023-04-13T02:39:01.819Z,113.60
2023-04-13T02:40:09.016Z,79.88
2023-04-13T02:41:11.882Z,221.25
2023-04-13T02:42:16.721Z,152.07
2023-04-13T02:43:18.885Z,163.35
2023-04-13T02:44:27.397Z,121.10
2023-04-13T02:45:31.079Z,185.75
2023-04-13T02:46:36.291Z,120.70
2023-04-13T02:47:39.089Z,131.30
2023-04-13T02:48:44.037Z,95.00
2023-04-13T02:49:47.301Z,122.75
2023-04-13T02:50:52.753Z,100.50
2023-04-13T02:51:55.343Z,123.72
2023-04-13T02:53:00.165Z,114.25
2023-04-13T02:54:03.553Z,117.60
2023-04-13T02:55:10.330Z,107.45
2023-04-13T02:56:14.519Z,137.20
2023-04-13T02:57:19.307Z,143.32
2023-04-13T02:58:23.539Z,151.05
2023-04-13T02:59:31.547Z,110.07
2023-04-13T03:00:34.097Z,109.93
2023-04-13T03:01:40.097Z,103.38
2023-04-13T03:02:43.049Z,103.47
2023-04-13T03:03:48.187Z,106.68
2023-04-13T03:04:50.911Z,98.88
2023-04-13T03:05:55.914Z,91.05
2023-04-13T03:06:58.971Z,119.05
2023-04-13T03:08:05.505Z,108.05
2023-04-13T03:09:08.200Z,111.03
2023-04-13T03:10:14.291Z,112.30
2023-04-13T03:11:17.075Z,112.90
2023-04-13T03:12:22.842Z,147.10
2023-04-13T03:13:25.212Z,123.70
2023-04-13T03:14:33.742Z,85.72
2023-04-13T03:15:35.960Z,92.22
2023-04-13T03:16:40.963Z,83.10
2023-04-13T03:17:44.362Z,82.80
2023-04-13T03:18:51.663Z,93.13
2023-04-13T03:19:54.287Z,81.78
2023-04-13T03:20:59.153Z,85.82
2023-04-13T03:22:01.683Z,85.57
2023-04-13T03:23:06.757Z,76.13
2023-04-13T03:24:09.700Z,87.30
2023-04-13T03:25:17.680Z,100.68
2023-04-13T03:26:19.937Z,134.30
2023-04-13T03:27:24.999Z,115.75
2023-04-13T03:28:27.207Z,83.88
2023-04-13T03:29:35.065Z,129.10
2023-04-13T03:30:37.888Z,97.05
2023-04-13T03:31:45.812Z,82.65
2023-04-13T03:32:48.396Z,82.10
2023-04-13T03:33:53.676Z,88.53
2023-04-13T03:34:55.843Z,99.85
2023-04-13T03:36:00.834Z,88.60
2023-04-13T03:37:06.113Z,71.10
2023-04-13T03:38:08.322Z,77.85
2023-04-13T03:39:13.537Z,94.05
2023-04-13T03:40:15.803Z,123.20
2023-04-13T03:41:20.832Z,118.35
2023-04-13T03:42:23.063Z,127.72
2023-04-13T03:43:27.845Z,134.25
2023-04-13T03:44:33.098Z,140.18
2023-04-13T03:45:38.224Z,111.45
2023-04-13T03:46:41.646Z,118.38
2023-04-13T03:47:46.617Z,113.40
2023-04-13T03:48:48.975Z,109.90
2023-04-13T03:49:54.022Z,92.40
2023-04-13T03:50:56.482Z,103.55
2023-04-13T03:52:01.439Z,87.68
2023-04-13T03:53:03.657Z,96.20
2023-04-13T03:54:09.721Z,85.53
2023-04-13T03:55:12.084Z,127.18
2023-04-13T03:56:17.186Z,137.07
2023-04-13T03:57:19.389Z,139.80
2023-04-13T03:58:24.267Z,140.40
2023-04-13T03:59:26.530Z,93.57
2023-04-13T04:00:34.223Z,99.35
2023-04-13T04:01:36.731Z,80.28
2023-04-13T04:02:41.934Z,72.10
2023-04-13T04:03:44.560Z,149.20
2023-04-13T04:04:49.844Z,88.63
2023-04-13T04:05:52.168Z,64.63
2023-04-13T04:06:58.269Z,122.60
2023-04-13T04:08:00.482Z,78.22
2023-04-13T04:09:05.584Z,86.30
2023-04-13T04:10:09.205Z,114.45
2023-04-13T04:11:14.096Z,109.68
2023-04-13T04:12:16.552Z,149.90
2023-04-13T04:13:21.296Z,158.32
2023-04-13T04:14:23.750Z,135.40
2023-04-13T04:15:28.911Z,156.02
2023-04-13T04:16:33.730Z,127.30
2023-04-13T04:17:40.072Z,98.18
2023-04-13T04:18:42.373Z,111.15
2023-04-13T04:19:47.100Z,106.05
2023-04-13T04:20:49.290Z,100.07
2023-04-13T04:21:54.081Z,135.68
2023-04-13T04:23:01.137Z,113.32
2023-04-13T04:24:06.798Z,101.55
2023-04-13T04:25:10.361Z,105.00
2023-04-13T04:26:15.255Z,130.00
2023-04-13T04:27:20.223Z,120.38
2023-04-13T04:28:22.345Z,147.85
2023-04-13T04:29:30.095Z,143.95
2023-04-13T04:30:34.089Z,99.05
2023-04-13T04:31:44.086Z,142.82
2023-04-13T04:32:46.311Z,116.93
2023-04-13T04:33:51.991Z,106.05
2023-04-13T04:34:54.203Z,122.65
2023-04-13T04:35:58.924Z,114.90
2023-04-13T04:37:08.124Z,118.78
2023-04-13T04:38:19.122Z,163.68
2023-04-13T04:39:22.817Z,166.23
2023-04-13T04:40:28.199Z,145.32
2023-04-13T04:41:31.473Z,117.00
2023-04-13T04:42:37.383Z,123.45
2023-04-13T04:43:39.626Z,104.70
2023-04-13T04:44:45.221Z,160.07
2023-04-13T04:45:52.322Z,114.47
2023-04-13T04:47:00.427Z,120.53
2023-04-13T04:48:04.204Z,125.72
2023-04-13T04:49:09.032Z,93.93
2023-04-13T04:50:12.731Z,109.15
2023-04-13T04:51:17.786Z,199.85
2023-04-13T04:52:21.671Z,136.73
2023-04-13T04:53:27.778Z,133.18
2023-04-13T04:54:29.859Z,126.28
2023-04-13T04:55:35.266Z,105.50
2023-04-13T04:56:37.453Z,98.30
2023-04-13T04:57:42.215Z,134.93
2023-04-13T04:58:44.906Z,90.45
2023-04-13T04:59:49.711Z,108.25
2023-04-13T05:00:53.523Z,103.25
2023-04-13T05:02:01.346Z,103.00
2023-04-13T05:03:03.628Z,110.47
2023-04-13T05:04:08.518Z,89.40
2023-04-13T05:05:11.993Z,110.43
2023-04-13T05:06:17.087Z,129.07
2023-04-13T05:07:19.279Z,136.07
2023-04-13T05:08:24.323Z,115.65
2023-04-13T05:09:26.934Z,120.88
2023-04-13T05:10:31.919Z,106.10
2023-04-13T05:11:34.395Z,89.75
2023-04-13T05:12:39.600Z,98.20
2023-04-13T05:13:42.165Z,105.97
2023-04-13T05:14:48.684Z,93.82
2023-04-13T05:15:50.843Z,116.68
2023-04-13T05:16:55.717Z,189.05
2023-04-13T05:18:00.777Z,106.13
2023-04-13T05:19:08.725Z,111.38
2023-04-13T05:20:12.054Z,153.93
2023-04-13T05:21:18.993Z,154.73
2023-04-13T05:22:21.686Z,158.10
2023-04-13T05:23:27.564Z,154.10
2023-04-13T05:24:29.646Z,133.38
2023-04-13T05:25:34.537Z,143.05
2023-04-13T05:26:36.735Z,144.93
2023-04-13T05:27:41.542Z,127.97
2023-04-13T05:28:43.708Z,131.15
2023-04-13T05:29:48.797Z,131.52
2023-04-13T05:30:51.285Z,127.45
2023-04-13T05:31:56.128Z,149.32
2023-04-13T05:33:05.924Z,130.35
2023-04-13T05:34:12.009Z,125.88
2023-04-13T05:35:14.133Z,144.13
2023-04-13T05:36:19.435Z,144.90
2023-04-13T05:37:21.729Z,164.85
2023-04-13T05:38:26.704Z,118.18
2023-04-13T05:39:29.372Z,128.52
2023-04-13T05:40:35.206Z,140.40
2023-04-13T05:41:37.446Z,119.32
2023-04-13T05:42:42.785Z,128.70
2023-04-13T05:43:46.385Z,124.95
2023-04-13T05:44:51.548Z,125.93
2023-04-13T05:45:56.406Z,120.88
2023-04-13T05:46:58.568Z,108.78
2023-04-13T05:48:05.986Z,127.18
2023-04-13T05:49:08.647Z,98.10
2023-04-13T05:50:14.429Z,97.80
2023-04-13T05:51:16.862Z,131.38
2023-04-13T05:52:22.226Z,130.65
2023-04-13T05:53:24.514Z,121.38
2023-04-13T05:54:29.558Z,129.80
2023-04-13T05:55:32.894Z,108.28
2023-04-13T05:56:38.210Z,101.20
2023-04-13T05:57:41.037Z,139.50
2023-04-13T05:58:46.221Z,101.15
2023-04-13T05:59:48.632Z,118.78
2023-04-13T06:00:53.382Z,100.30
2023-04-13T06:01:59.418Z,101.25
2023-04-13T06:03:04.513Z,103.97
2023-04-13T06:04:12.149Z,108.63
2023-04-13T06:05:15.342Z,126.68
2023-04-13T06:06:21.332Z,121.28
2023-04-13T06:07:28.325Z,135.07
2023-04-13T06:08:32.971Z,122.90
2023-04-13T06:09:39.438Z,125.13
2023-04-13T06:10:44.697Z,121.03
2023-04-13T06:11:49.614Z,139.93
2023-04-13T06:12:53.468Z,131.50
2023-04-13T06:14:00.166Z,167.02
2023-04-13T06:15:05.626Z,128.50
2023-04-13T06:16:09.371Z,103.25
2023-04-13T06:17:14.519Z,119.55
2023-04-13T06:18:22.402Z,129.00
2023-04-13T06:19:29.005Z,134.68
2023-04-13T06:20:34.806Z,113.13
2023-04-13T06:21:36.975Z,116.35
2023-04-13T06:22:42.124Z,132.90
2023-04-13T06:23:44.340Z,92.18
2023-04-13T06:24:49.281Z,108.40
2023-04-13T06:25:55.250Z,106.72
2023-04-13T06:27:00.381Z,92.63
2023-04-13T06:28:02.711Z,103.63
2023-04-13T06:29:07.705Z,93.00
2023-04-13T06:30:11.315Z,124.97
2023-04-13T06:31:16.813Z,94.78
2023-04-13T06:32:19.079Z,105.07
2023-04-13T06:33:26.804Z,157.30
2023-04-13T06:34:28.958Z,133.38
2023-04-13T06:35:34.272Z,100.80
2023-04-13T06:36:37.870Z,144.00
2023-04-13T06:37:42.676Z,91.75
2023-04-13T06:38:45.612Z,83.93
2023-04-13T06:39:50.552Z,109.22
2023-04-13T06:40:52.994Z,91.97
2023-04-13T06:41:57.885Z,109.97
2023-04-13T06:43:02.897Z,130.88
2023-04-13T06:44:10.449Z,86.32
2023-04-13T06:45:13.814Z,96.35
2023-04-13T06:46:19.930Z,175.82
2023-04-13T06:47:22.370Z,120.40
2023-04-13T06:48:30.259Z,133.13
2023-04-13T06:49:33.061Z,127.20
2023-04-13T06:50:37.895Z,118.18
2023-04-13T06:51:40.192Z,119.13
2023-04-13T06:52:45.704Z,142.43
2023-04-13T06:53:51.672Z,142.23
2023-04-13T06:54:53.851Z,117.35
2023-04-13T06:55:58.913Z,135.80
2023-04-13T06:57:02.579Z,146.88
2023-04-13T06:58:07.576Z,132.48
2023-04-13T06:59:09.851Z,134.77
2023-04-13T07:00:28.974Z,132.18
2023-04-13T07:01:35.041Z,134.15
2023-04-13T07:02:37.493Z,137.48
2023-04-13T07:03:45.510Z,152.63
2023-04-13T07:04:47.961Z,110.53
2023-04-13T07:05:53.175Z,99.47
2023-04-13T07:06:55.371Z,138.48
2023-04-13T07:08:00.164Z,101.82
2023-04-13T07:09:02.362Z,109.60
2023-04-13T07:10:08.132Z,128.77
2023-04-13T07:11:11.187Z,103.30
2023-04-13T07:12:16.331Z,121.20
2023-04-13T07:13:18.613Z,131.23
2023-04-13T07:14:23.397Z,143.63
2023-04-13T07:15:25.580Z,162.75
2023-04-13T07:16:30.473Z,149.00
2023-04-13T07:17:32.710Z,101.65
2023-04-13T07:18:38.061Z,93.88
2023-04-13T07:19:46.127Z,141.27
2023-04-13T07:20:51.164Z,115.40
2023-04-13T07:21:53.563Z,113.90
2023-04-13T07:22:58.612Z,107.68
2023-04-13T07:24:00.831Z,82.15
2023-04-13T07:25:06.367Z,108.93
2023-04-13T07:26:13.629Z,111.60
2023-04-13T07:27:21.687Z,141.63
2023-04-13T07:28:26.444Z,180.25
2023-04-13T07:29:28.707Z,290.70
2023-04-13T07:30:33.685Z,134.63
2023-04-13T07:31:35.842Z,131.73
2023-04-13T07:32:40.928Z,133.95
2023-04-13T07:33:43.265Z,138.13
2023-04-13T07:34:51.301Z,131.75
2023-04-13T07:35:55.726Z,123.07
2023-04-13T07:37:01.159Z,116.50
2023-04-13T07:38:06.001Z,130.55
2023-04-13T07:39:09.231Z,123.15
2023-04-13T07:40:15.729Z,105.88
2023-04-13T07:41:22.313Z,131.30
2023-04-13T07:42:27.911Z,158.30
2023-04-13T07:43:32.950Z,149.30
2023-04-13T07:44:37.962Z,108.75
2023-04-13T07:45:40.092Z,109.28
2023-04-13T07:46:45.130Z,106.03
2023-04-13T07:47:47.581Z,103.93
2023-04-13T07:48:52.362Z,102.55
2023-04-13T07:49:59.891Z,113.68
2023-04-13T07:51:02.479Z,90.95
2023-04-13T07:52:07.944Z,94.65
2023-04-13T07:53:13.084Z,121.57
2023-04-13T07:54:16.926Z,107.82
2023-04-13T07:55:21.886Z,158.32
2023-04-13T07:56:26.395Z,121.60
2023-04-13T07:57:31.172Z,121.80
2023-04-13T07:58:33.665Z,86.28
2023-04-13T07:59:38.437Z,88.78
2023-04-13T08:00:44.361Z,79.00
2023-04-13T08:01:49.700Z,84.32
2023-04-13T08:02:56.975Z,126.88
2023-04-13T08:03:59.468Z,94.88
2023-04-13T08:05:09.235Z,80.43
2023-04-13T08:06:11.743Z,115.53
2023-04-13T08:07:16.666Z,104.55
2023-04-13T08:08:21.905Z,170.38
2023-04-13T08:09:24.130Z,148.77
2023-04-13T08:10:29.265Z,147.45
2023-04-13T08:11:31.482Z,103.82
2023-04-13T08:12:36.947Z,163.98
2023-04-13T08:13:39.078Z,127.95
2023-04-13T08:14:43.922Z,149.23
2023-04-13T08:15:46.166Z,142.77
2023-04-13T08:16:50.900Z,131.05
2023-04-13T08:17:55.807Z,154.25
2023-04-13T08:18:58.109Z,142.75
2023-04-13T08:20:04.341Z,126.35
2023-04-13T08:21:16.329Z,139.70
2023-04-13T08:22:18.840Z,173.02
2023-04-13T08:23:24.428Z,141.00
2023-04-13T08:24:27.692Z,134.98
2023-04-13T08:25:32.565Z,156.43
2023-04-13T08:26:34.864Z,107.80
2023-04-13T08:27:40.042Z,115.78
2023-04-13T08:28:42.624Z,141.38
2023-04-13T08:29:47.374Z,112.38
2023-04-13T08:30:49.562Z,115.15
2023-04-13T08:31:54.862Z,142.18
2023-04-13T08:32:58.256Z,101.13
2023-04-13T08:34:04.766Z,108.63
2023-04-13T08:35:08.281Z,139.27
2023-04-13T08:36:17.698Z,127.50
2023-04-13T08:37:21.067Z,160.63
2023-04-13T08:38:25.912Z,151.25
2023-04-13T08:39:28.061Z,146.85
2023-04-13T08:40:34.333Z,147.50
2023-04-13T08:41:39.843Z,133.18
2023-04-13T08:42:46.016Z,129.68
2023-04-13T08:43:52.943Z,118.65
2023-04-13T08:45:01.376Z,113.95
2023-04-13T08:46:06.826Z,154.45
2023-04-13T08:47:13.096Z,138.70
2023-04-13T08:48:15.352Z,156.27
2023-04-13T08:49:20.703Z,150.98
2023-04-13T08:50:26.930Z,179.45
2023-04-13T08:51:32.387Z,173.45
2023-04-13T08:52:38.422Z,150.27
2023-04-13T08:53:40.774Z,145.88
2023-04-13T08:54:46.107Z,142.73
2023-04-13T08:55:53.727Z,128.25
2023-04-13T08:56:57.970Z,174.40
2023-04-13T08:58:06.382Z,128.57
2023-04-13T08:59:09.355Z,113.35
2023-04-13T09:00:17.006Z,127.90
2023-04-13T09:01:21.020Z,139.00
2023-04-13T09:02:28.632Z,155.40
2023-04-13T09:03:38.204Z,139.52
2023-04-13T09:04:45.251Z,106.85
2023-04-13T09:05:55.767Z,114.50
2023-04-13T09:07:04.848Z,145.35
2023-04-13T09:08:08.429Z,145.70
2023-04-13T09:09:14.910Z,117.55
2023-04-13T09:10:20.807Z,149.43
2023-04-13T09:11:22.888Z,163.00
2023-04-13T09:12:27.891Z,206.93
2023-04-13T09:13:30.241Z,176.80
2023-04-13T09:14:36.277Z,139.18
2023-04-13T09:15:42.949Z,170.52
2023-04-13T09:16:47.839Z,135.52
2023-04-13T09:17:50.718Z,148.77
2023-04-13T09:18:56.429Z,177.73
2023-04-13T09:20:15.296Z,161.77
2023-04-13T09:21:20.511Z,202.32
2023-04-13T09:22:28.601Z,150.52
2023-04-13T09:23:33.836Z,168.52
2023-04-13T09:24:40.084Z,160.52
2023-04-13T09:25:45.523Z,147.43
2023-04-13T09:26:52.690Z,175.77
2023-04-13T09:27:58.710Z,132.02
2023-04-13T09:29:06.323Z,136.70
2023-04-13T09:30:13.009Z,134.23
2023-04-13T09:31:26.161Z,140.38
2023-04-13T09:32:28.828Z,156.48
2023-04-13T09:33:37.496Z,141.80
2023-04-13T09:34:43.147Z,120.57
2023-04-13T09:35:47.875Z,114.78
2023-04-13T09:36:54.551Z,123.80
2023-04-13T09:38:02.985Z,121.82
2023-04-13T09:39:28.357Z,106.50
2023-04-13T09:40:38.439Z,170.93
2023-04-13T09:41:46.948Z,129.63
2023-04-13T09:43:02.251Z,165.75
2023-04-13T09:44:20.411Z,113.53
2023-04-13T09:45:25.681Z,114.90
2023-04-13T09:46:30.658Z,140.65
2023-04-13T09:47:37.767Z,130.45
2023-04-13T09:48:43.648Z,122.53
2023-04-13T09:49:48.451Z,113.28
2023-04-13T09:51:05.552Z,119.00
2023-04-13T09:52:21.439Z,138.18
2023-04-13T09:53:29.500Z,193.60
2023-04-13T09:54:32.061Z,160.82
2023-04-13T09:55:38.376Z,137.82
2023-04-13T09:56:45.146Z,144.48
2023-04-13T09:57:49.856Z,138.45
2023-04-13T09:58:54.780Z,188.20
2023-04-13T10:00:01.976Z,139.15
2023-04-13T10:01:07.632Z,171.90
2023-04-13T10:02:10.478Z,140.02
2023-04-13T10:03:19.299Z,82.40
2023-04-13T10:04:21.818Z,188.88
2023-04-13T10:05:29.096Z,197.23
2023-04-13T10:06:32.330Z,206.68
2023-04-13T10:07:38.302Z,223.73
2023-04-13T10:08:46.656Z,188.18
2023-04-13T10:09:51.846Z,247.82
2023-04-13T10:10:54.378Z,161.57
2023-04-13T10:12:00.309Z,293.58
2023-04-13T10:13:08.729Z,270.35
2023-04-13T10:14:19.577Z,419.75
2023-04-13T10:15:34.488Z,364.80
2023-04-13T10:17:05.096Z,178.88
2023-04-13T10:18:19.558Z,154.05
2023-04-13T10:19:28.121Z,329.33
2023-04-13T10:20:33.766Z,293.35
2023-04-13T10:21:39.680Z,177.50
2023-04-13T10:22:47.480Z,158.02
2023-04-13T10:23:53.032Z,183.43
2023-04-13T10:24:57.999Z,214.23
2023-04-13T10:26:04.249Z,191.77
2023-04-13T10:27:12.176Z,163.82
2023-04-13T10:28:17.840Z,182.13
2023-04-13T10:29:28.158Z,171.23
2023-04-13T10:30:33.050Z,694.25
2023-04-13T10:31:39.336Z,226.60
2023-04-13T10:32:44.672Z,202.23
2023-04-13T10:33:50.260Z,218.48
2023-04-13T10:34:56.197Z,217.65
2023-04-13T10:35:59.782Z,191.55
2023-04-13T10:37:07.662Z,150.73
2023-04-13T10:38:10.962Z,240.45
2023-04-13T10:39:28.090Z,122.65
2023-04-13T10:40:33.147Z,273.45
2023-04-13T10:41:35.812Z,219.07
2023-04-13T10:42:52.370Z,561.33
2023-04-13T10:44:05.336Z,676.25
2023-04-13T10:45:20.848Z,634.95
2023-04-13T10:46:25.860Z,370.67
2023-04-13T10:47:40.118Z,285.17
2023-04-13T10:48:46.852Z,229.73
2023-04-13T10:49:50.780Z,222.00
2023-04-13T10:51:01.072Z,222.23
2023-04-13T10:52:06.569Z,259.55
2023-04-13T10:53:11.526Z,199.25
2023-04-13T10:54:18.003Z,201.52
2023-04-13T10:55:26.068Z,316.77
2023-04-13T10:56:30.765Z,258.50
2023-04-13T10:57:34.752Z,281.25
2023-04-13T10:58:39.515Z,222.50
2023-04-13T10:59:56.423Z,247.70
2023-04-13T11:01:03.543Z,140.98
2023-04-13T11:02:07.133Z,154.45
2023-04-13T11:03:12.547Z,144.18
2023-04-13T11:04:19.011Z,196.90
2023-04-13T11:05:21.651Z,196.45
2023-04-13T11:06:27.305Z,268.02
2023-04-13T11:07:30.018Z,331.33
2023-04-13T11:08:36.529Z,369.10
2023-04-13T11:09:42.745Z,253.90
2023-04-13T11:10:54.205Z,245.05
2023-04-13T11:11:56.426Z,256.98
2023-04-13T11:13:02.211Z,257.17
2023-04-13T11:14:04.693Z,251.57
2023-04-13T11:15:11.465Z,211.80
2023-04-13T11:16:14.146Z,251.40
2023-04-13T11:17:22.655Z,260.50
2023-04-13T11:18:26.728Z,416.85
2023-04-13T11:19:31.634Z,352.55
2023-04-13T11:20:37.421Z,389.02
2023-04-13T11:21:39.489Z,259.30
2023-04-13T11:22:47.303Z,331.13
2023-04-13T11:23:55.575Z,283.55
2023-04-13T11:25:12.608Z,344.73
2023-04-13T11:26:17.882Z,179.48
2023-04-13T11:27:21.786Z,188.18
2023-04-13T11:28:27.883Z,610.65
2023-04-13T11:29:32.742Z,458.60
2023-04-13T11:30:35.138Z,345.15
2023-04-13T11:31:41.195Z,343.65
2023-04-13T11:32:48.933Z,204.32
2023-04-13T11:33:51.649Z,209.23
2023-04-13T11:34:58.460Z,171.00
2023-04-13T11:36:04.379Z,203.85
2023-04-13T11:37:07.680Z,155.57
2023-04-13T11:38:20.518Z,150.13
2023-04-13T11:39:25.293Z,266.35
2023-04-13T11:40:33.178Z,237.13
2023-04-13T11:41:40.239Z,229.80
2023-04-13T11:42:47.198Z,204.20
2023-04-13T11:43:52.480Z,231.25
2023-04-13T11:44:55.851Z,270.85
2023-04-13T11:46:02.329Z,156.02
2023-04-13T11:47:11.104Z,191.82
2023-04-13T11:48:14.437Z,182.07
2023-04-13T11:49:19.577Z,156.73
2023-04-13T11:50:22.642Z,200.40
2023-04-13T11:51:28.576Z,233.43
2023-04-13T11:52:32.642Z,271.50
2023-04-13T11:53:38.966Z,316.25
2023-04-13T11:54:43.125Z,221.02
2023-04-13T11:55:53.682Z,244.85
2023-04-13T11:56:59.194Z,199.25
2023-04-13T11:58:10.155Z,301.48
2023-04-13T11:59:15.892Z,442.10
2023-04-13T12:00:24.442Z,180.85
2023-04-13T12:01:34.161Z,271.35
2023-04-13T12:03:00.477Z,210.45
2023-04-13T12:05:22.881Z,163.68
2023-04-13T12:06:28.060Z,246.52
2023-04-13T12:07:31.379Z,207.07
2023-04-13T12:08:37.326Z,206.10
2023-04-13T12:11:30.205Z,173.80
2023-04-13T12:12:51.478Z,197.63
2023-04-13T12:14:07.268Z,224.18
2023-04-13T12:17:01.785Z,240.23
2023-04-13T12:18:02.366Z,186.38
2023-04-13T12:19:12.807Z,218.27
2023-04-13T12:20:16.641Z,264.90
2023-04-13T12:21:23.694Z,218.05
2023-04-13T12:22:47.401Z,237.90
2023-04-13T12:23:58.040Z,228.70
2023-04-13T12:25:03.340Z,277.55
2023-04-13T12:26:33.164Z,223.90
2023-04-13T12:27:43.161Z,268.42
2023-04-13T12:28:48.039Z,270.10
2023-04-13T12:29:52.827Z,311.17
2023-04-13T12:30:54.930Z,219.00
2023-04-13T12:32:05.682Z,202.68
2023-04-13T12:33:12.429Z,216.18
2023-04-13T12:34:17.077Z,197.45
2023-04-13T12:35:19.730Z,202.23
2023-04-13T12:36:27.121Z,238.60
2023-04-13T12:37:29.281Z,215.07
2023-04-13T12:38:34.762Z,216.82
2023-04-13T12:39:39.549Z,233.70
2023-04-13T12:40:41.975Z,168.85
2023-04-13T12:41:49.796Z,206.95
2023-04-13T12:42:52.157Z,224.45
2023-04-13T12:43:57.390Z,178.63
2023-04-13T12:45:02.300Z,152.55
2023-04-13T12:46:04.542Z,186.02
2023-04-13T12:47:11.271Z,219.48
2023-04-13T12:48:13.470Z,292.80
2023-04-13T12:49:18.713Z,439.48
2023-04-13T12:50:23.496Z,491.45
2023-04-13T12:51:26.406Z,493.98
2023-04-13T12:52:32.570Z,494.15
2023-04-13T12:53:35.138Z,442.02
2023-04-13T12:54:40.426Z,452.90
2023-04-13T12:55:46.229Z,433.85
2023-04-13T12:56:53.520Z,421.60
2023-04-13T12:57:56.240Z,461.88
2023-04-13T12:59:01.441Z,423.60
2023-04-13T13:00:10.658Z,435.33
2023-04-13T13:01:16.055Z,432.45
2023-04-13T13:02:18.227Z,588.33
2023-04-13T13:03:23.661Z,592.10
2023-04-13T13:04:25.923Z,593.45
2023-04-13T13:05:31.188Z,590.55
2023-04-13T13:06:34.440Z,641.00
2023-04-13T13:07:39.531Z,601.03
2023-04-13T13:08:44.323Z,565.97
2023-04-13T13:09:46.492Z,598.00
2023-04-13T13:10:51.405Z,502.30
2023-04-13T13:11:56.842Z,231.75
2023-04-13T13:13:04.126Z,233.93
2023-04-13T13:14:11.181Z,191.77
2023-04-13T13:15:15.494Z,172.15
2023-04-13T13:16:21.042Z,211.75
2023-04-13T13:17:26.171Z,197.18
2023-04-13T13:18:42.771Z,199.35
2023-04-13T13:19:54.938Z,155.57
2023-04-13T13:20:59.639Z,160.05
2023-04-13T13:22:02.128Z,181.73
2023-04-13T13:23:07.003Z,148.02
2023-04-13T13:24:09.335Z,156.38
2023-04-13T13:25:25.678Z,217.80
2023-04-13T13:26:33.048Z,244.13
2023-04-13T13:28:13.163Z,254.85
2023-04-13T13:29:19.512Z,294.15
2023-04-13T13:30:25.520Z,339.15
2023-04-13T13:31:27.883Z,399.60
2023-04-13T13:32:32.683Z,306.00
2023-04-13T13:33:34.935Z,215.68
2023-04-13T13:34:40.106Z,220.68
2023-04-13T13:35:42.182Z,237.15
2023-04-13T13:36:47.125Z,218.23
2023-04-13T13:37:51.766Z,216.25
2023-04-13T13:38:54.124Z,226.18
2023-04-13T13:39:59.392Z,232.43
2023-04-13T13:41:04.553Z,208.07
2023-04-13T13:42:06.983Z,179.55
2023-04-13T13:43:14.537Z,171.32
2023-04-13T13:44:16.850Z,161.75
2023-04-13T13:45:21.863Z,224.07
2023-04-13T13:46:24.111Z,206.70
2023-04-13T13:47:28.940Z,215.13